createdAt,value
2023-04-09T00:01:21.722Z,102343.34
2023-04-09T00:06:24.321Z,102338.00
2023-04-09T00:11:27.141Z,102339.50
2023-04-09T00:16:29.861Z,102347.19
2023-04-09T00:21:35.049Z,102353.94
2023-04-09T00:26:37.617Z,102335.03
2023-04-09T00:31:40.442Z,102336.97
2023-04-09T00:36:43.004Z,102338.91
2023-04-09T00:41:46.154Z,102338.91
2023-04-09T00:46:48.860Z,102340.69
2023-04-09T00:51:51.867Z,102342.66
2023-04-09T00:56:57.011Z,102340.28
2023-04-09T01:01:59.472Z,102344.97
2023-04-09T01:07:31.443Z,102341.78
2023-04-09T01:12:47.229Z,102341.47
2023-04-09T01:18:08.754Z,102356.72
2023-04-09T01:23:11.409Z,102354.63
2023-04-09T01:28:34.154Z,102364.59
2023-04-09T01:33:38.522Z,102356.13
2023-04-09T01:38:43.312Z,102362.25
2023-04-09T01:43:46.879Z,102358.44
2023-04-09T01:48:50.246Z,102362.19
2023-04-09T01:53:53.078Z,102353.28
2023-04-09T01:58:57.137Z,102369.56
2023-04-09T02:04:04.451Z,102364.16
2023-04-09T02:09:09.557Z,102371.13
2023-04-09T02:14:12.850Z,102371.25
2023-04-09T02:19:15.960Z,102378.09
2023-04-09T02:24:18.478Z,102378.09
2023-04-09T02:29:21.149Z,102388.66
2023-04-09T02:34:24.101Z,102392.97
2023-04-09T02:39:27.580Z,102403.97
2023-04-09T02:44:30.192Z,102402.88
2023-04-09T02:49:33.158Z,102402.47
2023-04-09T02:54:35.657Z,102407.25
2023-04-09T02:59:39.314Z,102406.59
2023-04-09T03:04:44.476Z,102408.72
2023-04-09T03:09:46.985Z,102404.47
2023-04-09T03:14:49.678Z,102400.84
2023-04-09T03:19:52.730Z,102415.66
2023-04-09T03:24:56.725Z,102420.41
2023-04-09T03:29:59.462Z,102420.16
2023-04-09T03:35:10.130Z,102406.38
2023-04-09T03:40:14.371Z,102413.25
2023-04-09T03:45:17.085Z,102421.50
2023-04-09T03:50:22.830Z,102429.88
2023-04-09T03:55:29.822Z,102433.66
2023-04-09T04:00:34.642Z,102438.69
2023-04-09T04:06:03.774Z,102435.09
2023-04-09T04:11:17.175Z,102433.16
2023-04-09T04:16:20.523Z,102434.56
2023-04-09T04:21:23.125Z,102433.47
2023-04-09T04:26:32.907Z,102432.88
2023-04-09T04:31:35.811Z,102430.66
2023-04-09T04:36:38.758Z,102426.41
2023-04-09T04:41:43.511Z,102432.97
2023-04-09T04:46:51.109Z,102433.22
2023-04-09T04:51:53.775Z,102440.38
2023-04-09T04:56:56.685Z,102424.56
2023-04-09T05:02:17.648Z,102433.94
2023-04-09T05:07:43.527Z,102432.50
2023-04-09T05:12:46.219Z,102432.09
2023-04-09T05:17:56.760Z,102438.09
2023-04-09T05:23:00.006Z,102434.91
2023-04-09T05:28:07.486Z,102435.81
2023-04-09T05:33:11.226Z,102434.38
2023-04-09T05:38:14.241Z,102429.47
2023-04-09T05:43:19.949Z,102439.78
2023-04-09T05:48:23.234Z,102437.53
2023-04-09T05:53:27.716Z,102440.94
2023-04-09T05:58:30.489Z,102442.19
2023-04-09T06:03:34.289Z,102454.09
2023-04-09T06:08:37.058Z,102451.53
2023-04-09T06:13:39.978Z,102454.97
2023-04-09T06:18:42.889Z,102448.84
2023-04-09T06:23:45.868Z,102450.38
2023-04-09T06:28:48.337Z,102454.41
2023-04-09T06:33:51.430Z,102445.91
2023-04-09T06:38:54.650Z,102448.28
2023-04-09T06:43:57.130Z,102445.09
2023-04-09T06:48:59.661Z,102437.78
2023-04-09T06:54:02.075Z,102440.94
2023-04-09T06:59:04.534Z,102436.44
2023-04-09T07:04:07.350Z,102437.72
2023-04-09T07:09:10.552Z,102432.31
2023-04-09T07:14:16.174Z,102425.44
2023-04-09T07:19:18.638Z,102408.06
2023-04-09T07:24:21.264Z,102413.19
2023-04-09T07:29:23.818Z,102413.81
2023-04-09T07:34:26.457Z,102404.56
2023-04-09T07:39:28.999Z,102404.34
2023-04-09T07:44:35.283Z,102396.22
2023-04-09T07:49:38.362Z,102372.53
2023-04-09T07:54:41.170Z,102375.63
2023-04-09T07:59:43.786Z,102384.91
2023-04-09T08:04:46.699Z,102382.81
2023-04-09T08:09:49.579Z,102386.13
2023-04-09T08:14:53.006Z,102381.13
2023-04-09T08:19:55.716Z,102366.22
2023-04-09T08:25:01.467Z,102363.63
2023-04-09T08:30:05.777Z,102364.19
2023-04-09T08:35:09.379Z,102362.28
2023-04-09T08:40:12.371Z,102361.13
2023-04-09T08:45:15.187Z,102351.59
2023-04-09T08:50:17.969Z,102358.44
2023-04-09T08:55:20.710Z,102349.28
2023-04-09T09:00:23.333Z,102343.78
2023-04-09T09:05:39.297Z,102335.25
2023-04-09T09:10:45.071Z,102344.06
2023-04-09T09:15:50.266Z,102348.13
2023-04-09T09:20:52.898Z,102340.53
2023-04-09T09:25:55.708Z,102340.56
2023-04-09T09:31:09.117Z,102344.66
2023-04-09T09:36:12.242Z,102348.22
2023-04-09T09:41:19.785Z,102330.06
2023-04-09T09:46:25.239Z,102341.22
2023-04-09T09:51:31.392Z,102347.53
2023-04-09T09:56:39.780Z,102344.25
2023-04-09T10:01:44.167Z,102331.44
2023-04-09T10:06:48.600Z,102345.91
2023-04-09T10:11:51.498Z,102337.56
2023-04-09T10:16:54.220Z,102330.78
2023-04-09T10:22:02.932Z,102332.00
2023-04-09T10:27:17.334Z,102324.78
2023-04-09T10:32:22.031Z,102331.03
2023-04-09T10:37:26.642Z,102320.59
2023-04-09T10:42:42.183Z,102318.22
2023-04-09T10:47:46.489Z,102321.72
2023-04-09T10:52:53.936Z,102324.94
2023-04-09T10:57:56.509Z,102319.69
2023-04-09T11:03:33.442Z,102307.53
2023-04-09T11:08:38.243Z,102299.63
2023-04-09T11:13:42.122Z,102297.56
2023-04-09T11:18:44.908Z,102301.16
2023-04-09T11:23:54.153Z,102293.03
2023-04-09T11:28:58.362Z,102293.09
2023-04-09T11:34:03.957Z,102282.44
2023-04-09T11:39:06.901Z,102284.59
2023-04-09T11:44:09.556Z,102287.44
2023-04-09T11:49:16.403Z,102279.03
2023-04-09T11:54:19.016Z,102278.59
2023-04-09T11:59:22.152Z,102268.34
2023-04-09T12:04:25.079Z,102262.25
2023-04-09T12:09:27.932Z,102266.09
2023-04-09T12:14:30.564Z,102266.88
2023-04-09T12:19:36.957Z,102256.75
2023-04-09T12:24:39.548Z,102255.63
2023-04-09T12:29:42.123Z,102251.34
2023-04-09T12:34:44.687Z,102253.81
2023-04-09T12:39:48.274Z,102258.22
2023-04-09T12:44:50.920Z,102257.13
2023-04-09T12:49:54.819Z,102256.09
2023-04-09T12:54:57.533Z,102252.44
2023-04-09T13:00:01.586Z,102263.66
2023-04-09T13:05:06.165Z,102252.09
2023-04-09T13:10:34.670Z,102251.59
2023-04-09T13:15:57.563Z,102250.81
2023-04-09T13:21:20.138Z,102256.47
2023-04-09T13:26:22.815Z,102240.25
2023-04-09T13:31:41.305Z,102243.50
2023-04-09T13:37:05.702Z,102237.69
2023-04-09T13:42:13.969Z,102235.91
2023-04-09T13:47:36.218Z,102233.69
2023-04-09T13:52:57.300Z,102240.19
2023-04-09T13:58:18.626Z,102237.69
2023-04-09T14:03:21.718Z,102232.84
2023-04-09T14:08:24.280Z,102240.53
2023-04-09T14:13:27.054Z,102235.16
2023-04-09T14:18:48.178Z,102221.94
2023-04-09T14:23:51.239Z,102227.50
2023-04-09T14:28:54.042Z,102230.13
2023-04-09T14:33:57.037Z,102219.38
2023-04-09T14:39:00.313Z,102232.69
2023-04-09T14:44:03.108Z,102227.00
2023-04-09T14:49:05.696Z,102229.28
2023-04-09T14:54:08.234Z,102231.91
2023-04-09T14:59:20.396Z,102226.53
2023-04-09T15:04:24.586Z,102228.38
2023-04-09T15:09:27.378Z,102234.59
2023-04-09T15:14:33.830Z,102237.53
2023-04-09T15:19:36.440Z,102234.81
2023-04-09T15:24:39.069Z,102244.09
2023-04-09T15:29:41.732Z,102243.81
2023-04-09T15:34:44.895Z,102242.63
2023-04-09T15:39:49.722Z,102242.41
2023-04-09T15:44:52.320Z,102250.03
2023-04-09T15:49:56.207Z,102246.88
2023-04-09T15:54:58.930Z,102229.31
2023-04-09T16:00:01.614Z,102242.69
2023-04-09T16:05:07.815Z,102237.53
2023-04-09T16:10:10.682Z,102247.66
2023-04-09T16:15:13.240Z,102241.63
2023-04-09T16:20:15.965Z,102245.53
2023-04-09T16:25:18.503Z,102244.09
2023-04-09T16:30:21.488Z,102253.09
2023-04-09T16:35:24.130Z,102244.41
2023-04-09T16:40:26.922Z,102248.63
2023-04-09T16:45:30.104Z,102252.94
2023-04-09T16:55:53.237Z,102252.31
2023-04-09T17:00:55.806Z,102252.09
2023-04-09T17:05:58.418Z,102257.31
2023-04-09T17:11:04.033Z,102254.00
2023-04-09T17:16:06.976Z,102250.47
2023-04-09T17:21:09.838Z,102249.34
2023-04-09T17:26:12.468Z,102250.06
2023-04-09T17:31:16.203Z,102247.88
2023-04-09T17:36:20.325Z,102243.75
2023-04-09T17:41:23.404Z,102247.09
2023-04-09T17:46:26.106Z,102241.81
2023-04-09T17:51:29.029Z,102239.19
2023-04-09T17:56:35.182Z,102244.53
2023-04-09T18:01:37.865Z,102245.22
2023-04-09T18:06:40.513Z,102242.75
2023-04-09T18:11:43.169Z,102237.25
2023-04-09T18:16:45.814Z,102211.63
2023-04-09T18:21:48.469Z,102241.44
2023-04-09T18:26:51.177Z,102231.97
2023-04-09T18:31:57.665Z,102238.81
2023-04-09T18:37:00.240Z,102238.41
2023-04-09T18:42:03.868Z,102239.41
2023-04-09T18:47:09.615Z,102227.81
2023-04-09T18:52:12.244Z,102228.00
2023-04-09T18:57:14.814Z,102233.78
2023-04-09T19:02:17.370Z,102231.50
2023-04-09T19:07:20.115Z,102230.50
2023-04-09T19:12:22.888Z,102228.53
2023-04-09T19:17:25.518Z,102230.03
2023-04-09T19:22:28.452Z,102223.19
2023-04-09T19:27:31.126Z,102232.22
2023-04-09T19:32:33.647Z,102213.56
2023-04-09T19:37:36.343Z,102212.91
2023-04-09T19:42:38.991Z,102215.75
2023-04-09T19:47:41.702Z,102219.06
2023-04-09T19:52:44.272Z,102215.41
2023-04-09T19:57:49.281Z,102221.25
2023-04-09T20:02:52.046Z,102218.25
2023-04-09T20:07:54.935Z,102219.41
2023-04-09T20:12:58.194Z,102220.75
2023-04-09T20:18:00.825Z,102214.75
2023-04-09T20:23:05.955Z,102219.09
2023-04-09T20:28:10.165Z,102209.94
2023-04-09T20:33:13.087Z,102209.75
2023-04-09T20:38:15.810Z,102217.09
2023-04-09T20:43:18.416Z,102201.94
2023-04-09T20:48:21.284Z,102207.94
2023-04-09T20:53:26.728Z,102207.72
2023-04-09T20:58:31.293Z,102204.06
2023-04-09T21:03:35.209Z,102200.22
2023-04-09T21:08:38.692Z,102200.88
2023-04-09T21:13:53.890Z,102190.03
2023-04-09T21:18:57.796Z,102204.84
2023-04-09T21:24:00.530Z,102201.19
2023-04-09T21:29:04.609Z,102201.72
2023-04-09T21:34:07.138Z,102199.19
2023-04-09T21:39:09.537Z,102200.53
2023-04-09T21:44:12.066Z,102191.06
2023-04-09T21:49:14.804Z,102185.22
2023-04-09T21:54:17.238Z,102188.22
2023-04-09T21:59:19.759Z,102191.53
2023-04-09T22:04:22.655Z,102192.53
2023-04-09T22:09:25.698Z,102195.81
2023-04-09T22:14:29.740Z,102184.00
2023-04-09T22:19:32.703Z,102187.50
2023-04-09T22:24:35.288Z,102185.78
2023-04-09T22:29:38.203Z,102185.44
2023-04-09T22:34:40.875Z,102180.63
2023-04-09T22:39:43.822Z,102181.28
2023-04-09T22:44:46.407Z,102180.97
2023-04-09T22:49:53.179Z,102173.50
2023-04-09T22:54:55.851Z,102175.19
2023-04-09T22:59:58.645Z,102176.31
2023-04-09T23:05:02.429Z,102183.84
2023-04-09T23:10:06.970Z,102184.81
2023-04-09T23:15:09.935Z,102181.19
2023-04-09T23:20:15.534Z,102170.03
2023-04-09T23:25:18.839Z,102170.66
2023-04-09T23:30:22.003Z,102173.81
2023-04-09T23:35:24.534Z,102166.81
2023-04-09T23:40:27.742Z,102169.47
2023-04-09T23:45:30.709Z,102172.91
2023-04-09T23:50:33.792Z,102164.06
2023-04-09T23:55:41.559Z,102181.19
